sensor_id;sensor_type;location;lat;lon;timestamp;P1;durP1;ratioP1;P2;durP2;ratioP2
66830;SDS011;53739;44.224;22.528;2023-02-11T00:27:16;446.10;;;204.13;;
66830;SDS011;53739;44.224;22.528;2023-02-11T00:30:16;507.48;;;231.82;;
66830;SDS011;53739;44.224;22.528;2023-02-11T00:36:47;580.05;;;279.27;;
66830;SDS011;53739;44.224;22.528;2023-02-11T00:39:19;527.92;;;261.63;;
66830;SDS011;53739;44.224;22.528;2023-02-11T00:41:51;493.02;;;231.10;;
66830;SDS011;53739;44.224;22.528;2023-02-11T00:44:20;474.25;;;223.38;;
66830;SDS011;53739;44.224;22.528;2023-02-11T00:46:55;446.80;;;211.48;;
66830;SDS011;53739;44.224;22.528;2023-02-11T00:49:28;393.05;;;181.95;;
66830;SDS011;53739;44.224;22.528;2023-02-11T00:55:30;291.55;;;134.40;;
66830;SDS011;53739;44.224;22.528;2023-02-11T01:02:13;199.18;;;93.50;;
66830;SDS011;53739;44.224;22.528;2023-02-11T01:04:44;106.03;;;51.83;;
66830;SDS011;53739;44.224;22.528;2023-02-11T01:07:15;78.93;;;38.53;;
66830;SDS011;53739;44.224;22.528;2023-02-11T01:09:44;40.05;;;20.30;;
66830;SDS011;53739;44.224;22.528;2023-02-11T01:15:57;47.05;;;20.88;;
66830;SDS011;53739;44.224;22.528;2023-02-11T01:18:43;45.35;;;21.15;;
66830;SDS011;53739;44.224;22.528;2023-02-11T01:21:30;39.97;;;20.08;;
66830;SDS011;53739;44.224;22.528;2023-02-11T01:24:25;35.47;;;17.70;;
66830;SDS011;53739;44.224;22.528;2023-02-11T01:37:01;61.00;;;25.25;;
66830;SDS011;53739;44.224;22.528;2023-02-11T01:43:27;57.05;;;24.48;;
66830;SDS011;53739;44.224;22.528;2023-02-11T01:50:14;49.03;;;24.65;;
66830;SDS011;53739;44.224;22.528;2023-02-11T01:52:52;69.45;;;26.05;;
66830;SDS011;53739;44.224;22.528;2023-02-11T01:55:45;54.47;;;24.25;;
66830;SDS011;53739;44.224;22.528;2023-02-11T01:58:44;67.28;;;28.15;;
66830;SDS011;53739;44.224;22.528;2023-02-11T02:01:45;56.35;;;24.42;;
66830;SDS011;53739;44.224;22.528;2023-02-11T02:05:02;58.00;;;23.70;;
66830;SDS011;53739;44.224;22.528;2023-02-11T02:13:44;66.85;;;29.75;;
66830;SDS011;53739;44.224;22.528;2023-02-11T02:16:13;80.15;;;32.22;;
66830;SDS011;53739;44.224;22.528;2023-02-11T02:39:34;96.82;;;34.55;;
66830;SDS011;53739;44.224;22.528;2023-02-11T02:42:01;60.83;;;30.05;;
66830;SDS011;53739;44.224;22.528;2023-02-11T02:44:28;68.25;;;30.27;;
66830;SDS011;53739;44.224;22.528;2023-02-11T02:46:55;125.00;;;45.17;;
66830;SDS011;53739;44.224;22.528;2023-02-11T02:49:21;98.47;;;35.22;;
66830;SDS011;53739;44.224;22.528;2023-02-11T02:51:57;145.20;;;51.17;;
66830;SDS011;53739;44.224;22.528;2023-02-11T02:57:50;44.47;;;22.65;;
66830;SDS011;53739;44.224;22.528;2023-02-11T03:03:34;68.40;;;32.35;;
66830;SDS011;53739;44.224;22.528;2023-02-11T03:12:56;43.58;;;22.92;;
66830;SDS011;53739;44.224;22.528;2023-02-11T03:15:23;37.35;;;22.17;;
66830;SDS011;53739;44.224;22.528;2023-02-11T03:17:53;36.28;;;18.40;;
66830;SDS011;53739;44.224;22.528;2023-02-11T03:20:22;30.42;;;19.40;;
66830;SDS011;53739;44.224;22.528;2023-02-11T03:25:33;34.20;;;20.10;;
66830;SDS011;53739;44.224;22.528;2023-02-11T03:28:12;35.60;;;19.40;;
66830;SDS011;53739;44.224;22.528;2023-02-11T03:30:56;31.50;;;18.02;;
66830;SDS011;53739;44.224;22.528;2023-02-11T03:33:47;33.60;;;18.00;;
66830;SDS011;53739;44.224;22.528;2023-02-11T03:36:34;47.83;;;30.83;;
66830;SDS011;53739;44.224;22.528;2023-02-11T03:39:10;31.45;;;16.88;;
66830;SDS011;53739;44.224;22.528;2023-02-11T03:41:40;38.60;;;21.67;;
66830;SDS011;53739;44.224;22.528;2023-02-11T03:44:07;41.15;;;20.38;;
66830;SDS011;53739;44.224;22.528;2023-02-11T03:46:36;56.78;;;32.25;;
66830;SDS011;53739;44.224;22.528;2023-02-11T03:49:06;42.72;;;23.30;;
66830;SDS011;53739;44.224;22.528;2023-02-11T03:51:35;34.47;;;18.00;;
66830;SDS011;53739;44.224;22.528;2023-02-11T03:54:02;45.53;;;24.73;;
66830;SDS011;53739;44.224;22.528;2023-02-11T03:56:34;40.70;;;22.75;;
66830;SDS011;53739;44.224;22.528;2023-02-11T03:59:13;42.80;;;22.52;;
66830;SDS011;53739;44.224;22.528;2023-02-11T04:01:39;32.25;;;17.52;;
66830;SDS011;53739;44.224;22.528;2023-02-11T04:04:05;34.15;;;16.48;;
66830;SDS011;53739;44.224;22.528;2023-02-11T04:06:31;31.27;;;17.40;;
66830;SDS011;53739;44.224;22.528;2023-02-11T04:08:56;34.42;;;18.70;;
66830;SDS011;53739;44.224;22.528;2023-02-11T04:11:22;38.60;;;19.73;;
66830;SDS011;53739;44.224;22.528;2023-02-11T04:13:48;37.00;;;17.40;;
66830;SDS011;53739;44.224;22.528;2023-02-11T04:16:13;32.85;;;18.38;;
66830;SDS011;53739;44.224;22.528;2023-02-11T04:18:39;34.67;;;18.42;;
66830;SDS011;53739;44.224;22.528;2023-02-11T04:21:05;57.05;;;28.75;;
66830;SDS011;53739;44.224;22.528;2023-02-11T04:23:31;31.05;;;18.15;;
66830;SDS011;53739;44.224;22.528;2023-02-11T04:25:57;33.28;;;17.27;;
66830;SDS011;53739;44.224;22.528;2023-02-11T04:28:22;26.60;;;15.07;;
66830;SDS011;53739;44.224;22.528;2023-02-11T04:30:49;43.22;;;24.42;;
66830;SDS011;53739;44.224;22.528;2023-02-11T04:33:15;32.00;;;17.27;;
66830;SDS011;53739;44.224;22.528;2023-02-11T04:35:41;35.00;;;18.52;;
66830;SDS011;53739;44.224;22.528;2023-02-11T04:38:06;34.00;;;17.75;;
66830;SDS011;53739;44.224;22.528;2023-02-11T04:40:32;35.10;;;18.70;;
66830;SDS011;53739;44.224;22.528;2023-02-11T04:42:58;34.63;;;19.33;;
66830;SDS011;53739;44.224;22.528;2023-02-11T04:45:24;39.58;;;20.65;;
66830;SDS011;53739;44.224;22.528;2023-02-11T04:47:50;36.50;;;18.98;;
66830;SDS011;53739;44.224;22.528;2023-02-11T04:50:15;36.17;;;18.98;;
66830;SDS011;53739;44.224;22.528;2023-02-11T04:52:41;37.55;;;19.88;;
66830;SDS011;53739;44.224;22.528;2023-02-11T04:55:07;35.10;;;18.83;;
66830;SDS011;53739;44.224;22.528;2023-02-11T04:57:33;34.20;;;19.90;;
66830;SDS011;53739;44.224;22.528;2023-02-11T04:59:58;44.72;;;22.10;;
66830;SDS011;53739;44.224;22.528;2023-02-11T05:02:24;42.20;;;21.77;;
66830;SDS011;53739;44.224;22.528;2023-02-11T05:04:50;43.20;;;20.73;;
66830;SDS011;53739;44.224;22.528;2023-02-11T05:07:16;44.80;;;22.13;;
66830;SDS011;53739;44.224;22.528;2023-02-11T05:09:41;39.65;;;20.35;;
66830;SDS011;53739;44.224;22.528;2023-02-11T05:12:07;47.72;;;20.42;;
66830;SDS011;53739;44.224;22.528;2023-02-11T05:14:34;52.97;;;27.33;;
66830;SDS011;53739;44.224;22.528;2023-02-11T05:16:59;45.78;;;24.40;;
66830;SDS011;53739;44.224;22.528;2023-02-11T05:19:25;50.55;;;27.48;;
66830;SDS011;53739;44.224;22.528;2023-02-11T05:21:51;47.70;;;25.33;;
66830;SDS011;53739;44.224;22.528;2023-02-11T05:24:19;44.45;;;22.52;;
66830;SDS011;53739;44.224;22.528;2023-02-11T05:26:45;44.25;;;22.65;;
66830;SDS011;53739;44.224;22.528;2023-02-11T05:29:10;37.90;;;20.15;;
66830;SDS011;53739;44.224;22.528;2023-02-11T05:31:36;65.85;;;29.52;;
66830;SDS011;53739;44.224;22.528;2023-02-11T05:34:02;46.50;;;23.67;;
66830;SDS011;53739;44.224;22.528;2023-02-11T05:36:28;39.60;;;20.90;;
66830;SDS011;53739;44.224;22.528;2023-02-11T05:38:54;41.75;;;21.30;;
66830;SDS011;53739;44.224;22.528;2023-02-11T05:41:20;36.40;;;18.65;;
66830;SDS011;53739;44.224;22.528;2023-02-11T05:43:49;40.88;;;20.77;;
66830;SDS011;53739;44.224;22.528;2023-02-11T05:46:15;35.70;;;18.15;;
66830;SDS011;53739;44.224;22.528;2023-02-11T05:48:41;35.22;;;19.30;;
66830;SDS011;53739;44.224;22.528;2023-02-11T05:51:07;40.75;;;20.27;;
66830;SDS011;53739;44.224;22.528;2023-02-11T05:53:33;35.72;;;19.30;;
66830;SDS011;53739;44.224;22.528;2023-02-11T05:55:59;38.78;;;20.05;;
66830;SDS011;53739;44.224;22.528;2023-02-11T05:58:26;44.08;;;23.05;;
66830;SDS011;53739;44.224;22.528;2023-02-11T06:00:51;43.63;;;21.35;;
66830;SDS011;53739;44.224;22.528;2023-02-11T06:03:17;36.90;;;19.60;;
66830;SDS011;53739;44.224;22.528;2023-02-11T06:05:43;37.50;;;19.08;;
66830;SDS011;53739;44.224;22.528;2023-02-11T06:08:09;36.35;;;20.23;;
66830;SDS011;53739;44.224;22.528;2023-02-11T06:10:36;35.95;;;19.58;;
66830;SDS011;53739;44.224;22.528;2023-02-11T06:13:02;42.20;;;21.25;;
66830;SDS011;53739;44.224;22.528;2023-02-11T06:15:28;38.15;;;21.48;;
66830;SDS011;53739;44.224;22.528;2023-02-11T06:17:54;34.75;;;19.33;;
66830;SDS011;53739;44.224;22.528;2023-02-11T06:20:20;36.25;;;19.80;;
66830;SDS011;53739;44.224;22.528;2023-02-11T06:22:46;42.58;;;21.92;;
66830;SDS011;53739;44.224;22.528;2023-02-11T06:25:12;36.95;;;19.52;;
66830;SDS011;53739;44.224;22.528;2023-02-11T06:27:39;44.67;;;19.92;;
66830;SDS011;53739;44.224;22.528;2023-02-11T06:30:05;34.42;;;18.15;;
66830;SDS011;53739;44.224;22.528;2023-02-11T06:32:31;42.90;;;21.38;;
66830;SDS011;53739;44.224;22.528;2023-02-11T06:34:57;48.25;;;22.60;;
66830;SDS011;53739;44.224;22.528;2023-02-11T06:37:24;53.10;;;24.50;;
66830;SDS011;53739;44.224;22.528;2023-02-11T06:39:50;53.28;;;27.20;;
66830;SDS011;53739;44.224;22.528;2023-02-11T06:42:16;43.08;;;21.75;;
66830;SDS011;53739;44.224;22.528;2023-02-11T06:44:41;67.63;;;30.63;;
66830;SDS011;53739;44.224;22.528;2023-02-11T06:47:08;61.30;;;29.95;;
66830;SDS011;53739;44.224;22.528;2023-02-11T06:49:34;55.05;;;26.95;;
66830;SDS011;53739;44.224;22.528;2023-02-11T06:52:00;76.47;;;32.55;;
66830;SDS011;53739;44.224;22.528;2023-02-11T06:54:27;89.25;;;39.05;;
66830;SDS011;53739;44.224;22.528;2023-02-11T06:56:53;59.90;;;29.45;;
66830;SDS011;53739;44.224;22.528;2023-02-11T06:59:18;76.72;;;32.83;;
66830;SDS011;53739;44.224;22.528;2023-02-11T07:01:44;120.45;;;46.88;;
66830;SDS011;53739;44.224;22.528;2023-02-11T07:04:11;89.28;;;37.80;;
66830;SDS011;53739;44.224;22.528;2023-02-11T07:06:38;41.92;;;19.52;;
66830;SDS011;53739;44.224;22.528;2023-02-11T07:09:05;77.78;;;34.67;;
66830;SDS011;53739;44.224;22.528;2023-02-11T07:11:32;72.32;;;30.95;;
66830;SDS011;53739;44.224;22.528;2023-02-11T07:14:02;94.38;;;41.50;;
66830;SDS011;53739;44.224;22.528;2023-02-11T07:16:30;68.65;;;36.42;;
66830;SDS011;53739;44.224;22.528;2023-02-11T07:18:56;39.92;;;20.10;;
66830;SDS011;53739;44.224;22.528;2023-02-11T07:21:22;75.15;;;34.35;;
66830;SDS011;53739;44.224;22.528;2023-02-11T07:23:48;41.90;;;21.50;;
66830;SDS011;53739;44.224;22.528;2023-02-11T07:26:16;45.05;;;23.98;;
66830;SDS011;53739;44.224;22.528;2023-02-11T07:28:43;63.00;;;29.42;;
66830;SDS011;53739;44.224;22.528;2023-02-11T07:31:23;50.20;;;26.80;;
66830;SDS011;53739;44.224;22.528;2023-02-11T07:33:50;84.47;;;43.67;;
66830;SDS011;53739;44.224;22.528;2023-02-11T07:36:18;59.08;;;29.13;;
66830;SDS011;53739;44.224;22.528;2023-02-11T07:38:44;86.65;;;39.15;;
66830;SDS011;53739;44.224;22.528;2023-02-11T07:41:11;78.90;;;36.40;;
66830;SDS011;53739;44.224;22.528;2023-02-11T07:43:39;60.50;;;29.17;;
66830;SDS011;53739;44.224;22.528;2023-02-11T07:46:06;107.68;;;48.97;;
66830;SDS011;53739;44.224;22.528;2023-02-11T07:48:36;84.35;;;38.67;;
66830;SDS011;53739;44.224;22.528;2023-02-11T07:53:38;100.68;;;43.33;;
66830;SDS011;53739;44.224;22.528;2023-02-11T07:56:04;105.30;;;46.63;;
66830;SDS011;53739;44.224;22.528;2023-02-11T07:58:31;105.75;;;48.20;;
66830;SDS011;53739;44.224;22.528;2023-02-11T08:01:01;68.38;;;33.08;;
66830;SDS011;53739;44.224;22.528;2023-02-11T08:03:27;62.78;;;31.25;;
66830;SDS011;53739;44.224;22.528;2023-02-11T08:05:53;62.47;;;29.80;;
66830;SDS011;53739;44.224;22.528;2023-02-11T08:08:19;53.30;;;27.70;;
66830;SDS011;53739;44.224;22.528;2023-02-11T08:10:45;65.18;;;32.08;;
66830;SDS011;53739;44.224;22.528;2023-02-11T08:13:11;68.40;;;33.40;;
66830;SDS011;53739;44.224;22.528;2023-02-11T08:15:36;47.88;;;24.92;;
66830;SDS011;53739;44.224;22.528;2023-02-11T08:18:02;41.85;;;23.35;;
66830;SDS011;53739;44.224;22.528;2023-02-11T08:20:28;59.70;;;29.58;;
66830;SDS011;53739;44.224;22.528;2023-02-11T08:22:53;56.08;;;30.42;;
66830;SDS011;53739;44.224;22.528;2023-02-11T08:25:19;50.88;;;22.10;;
66830;SDS011;53739;44.224;22.528;2023-02-11T08:27:45;79.32;;;38.88;;
66830;SDS011;53739;44.224;22.528;2023-02-11T08:30:11;65.78;;;31.85;;
66830;SDS011;53739;44.224;22.528;2023-02-11T08:32:37;58.75;;;28.95;;
66830;SDS011;53739;44.224;22.528;2023-02-11T08:35:03;41.28;;;24.65;;
66830;SDS011;53739;44.224;22.528;2023-02-11T08:37:31;35.90;;;19.90;;
66830;SDS011;53739;44.224;22.528;2023-02-11T08:39:57;47.45;;;27.73;;
66830;SDS011;53739;44.224;22.528;2023-02-11T08:42:23;164.85;;;88.28;;
66830;SDS011;53739;44.224;22.528;2023-02-11T08:44:49;40.30;;;21.90;;
66830;SDS011;53739;44.224;22.528;2023-02-11T08:47:15;89.82;;;44.60;;
66830;SDS011;53739;44.224;22.528;2023-02-11T08:49:40;97.60;;;47.35;;
66830;SDS011;53739;44.224;22.528;2023-02-11T08:52:06;105.45;;;51.05;;
66830;SDS011;53739;44.224;22.528;2023-02-11T08:54:32;120.13;;;66.82;;
66830;SDS011;53739;44.224;22.528;2023-02-11T08:56:58;39.33;;;19.33;;
66830;SDS011;53739;44.224;22.528;2023-02-11T08:59:26;38.75;;;23.25;;
66830;SDS011;53739;44.224;22.528;2023-02-11T09:01:52;36.83;;;23.13;;
66830;SDS011;53739;44.224;22.528;2023-02-11T09:04:18;40.35;;;22.15;;
66830;SDS011;53739;44.224;22.528;2023-02-11T09:06:43;40.50;;;26.60;;
66830;SDS011;53739;44.224;22.528;2023-02-11T09:09:13;32.03;;;19.67;;
66830;SDS011;53739;44.224;22.528;2023-02-11T09:11:39;44.67;;;24.73;;
66830;SDS011;53739;44.224;22.528;2023-02-11T09:14:06;45.35;;;26.83;;
66830;SDS011;53739;44.224;22.528;2023-02-11T09:16:34;42.58;;;27.55;;
66830;SDS011;53739;44.224;22.528;2023-02-11T09:19:01;34.90;;;22.08;;
66830;SDS011;53739;44.224;22.528;2023-02-11T09:21:30;37.63;;;19.90;;
66830;SDS011;53739;44.224;22.528;2023-02-11T09:23:56;39.20;;;21.98;;
66830;SDS011;53739;44.224;22.528;2023-02-11T09:26:23;46.85;;;27.27;;
66830;SDS011;53739;44.224;22.528;2023-02-11T09:28:53;38.38;;;23.10;;
66830;SDS011;53739;44.224;22.528;2023-02-11T09:31:20;37.13;;;22.05;;
66830;SDS011;53739;44.224;22.528;2023-02-11T09:33:48;34.22;;;19.48;;
66830;SDS011;53739;44.224;22.528;2023-02-11T09:36:17;33.78;;;19.58;;
66830;SDS011;53739;44.224;22.528;2023-02-11T09:38:45;32.17;;;18.13;;
66830;SDS011;53739;44.224;22.528;2023-02-11T09:41:26;39.47;;;21.70;;
66830;SDS011;53739;44.224;22.528;2023-02-11T09:44:22;36.88;;;21.95;;
66830;SDS011;53739;44.224;22.528;2023-02-11T09:46:54;39.92;;;20.90;;
66830;SDS011;53739;44.224;22.528;2023-02-11T09:49:49;43.63;;;25.48;;
66830;SDS011;53739;44.224;22.528;2023-02-11T09:55:16;33.53;;;20.40;;
66830;SDS011;53739;44.224;22.528;2023-02-11T09:58:01;68.32;;;38.40;;
66830;SDS011;53739;44.224;22.528;2023-02-11T10:00:36;25.40;;;15.20;;
66830;SDS011;53739;44.224;22.528;2023-02-11T10:03:20;26.75;;;15.98;;
66830;SDS011;53739;44.224;22.528;2023-02-11T10:22:59;39.45;;;22.63;;
66830;SDS011;53739;44.224;22.528;2023-02-11T10:25:33;28.83;;;15.77;;
66830;SDS011;53739;44.224;22.528;2023-02-11T10:28:14;23.30;;;15.85;;
66830;SDS011;53739;44.224;22.528;2023-02-11T10:30:45;23.33;;;14.52;;
66830;SDS011;53739;44.224;22.528;2023-02-11T10:35:44;28.65;;;18.00;;
66830;SDS011;53739;44.224;22.528;2023-02-11T10:38:10;26.40;;;14.23;;
66830;SDS011;53739;44.224;22.528;2023-02-11T10:40:36;24.33;;;14.75;;
66830;SDS011;53739;44.224;22.528;2023-02-11T10:43:03;66.25;;;42.60;;
66830;SDS011;53739;44.224;22.528;2023-02-11T10:45:47;24.60;;;17.20;;
66830;SDS011;53739;44.224;22.528;2023-02-11T10:53:37;30.15;;;19.67;;
66830;SDS011;53739;44.224;22.528;2023-02-11T10:56:03;25.90;;;17.27;;
66830;SDS011;53739;44.224;22.528;2023-02-11T10:58:44;32.90;;;21.42;;
66830;SDS011;53739;44.224;22.528;2023-02-11T11:01:17;72.22;;;36.47;;
66830;SDS011;53739;44.224;22.528;2023-02-11T11:03:45;35.58;;;20.73;;
66830;SDS011;53739;44.224;22.528;2023-02-11T11:06:13;47.05;;;24.77;;
66830;SDS011;53739;44.224;22.528;2023-02-11T11:08:43;45.95;;;25.55;;
66830;SDS011;53739;44.224;22.528;2023-02-11T11:11:18;33.80;;;19.75;;
66830;SDS011;53739;44.224;22.528;2023-02-11T11:16:19;71.18;;;35.83;;
66830;SDS011;53739;44.224;22.528;2023-02-11T11:21:39;50.42;;;29.27;;
66830;SDS011;53739;44.224;22.528;2023-02-11T11:24:22;99.90;;;50.05;;
66830;SDS011;53739;44.224;22.528;2023-02-11T11:26:59;45.92;;;24.27;;
66830;SDS011;53739;44.224;22.528;2023-02-11T11:29:32;23.63;;;13.75;;
66830;SDS011;53739;44.224;22.528;2023-02-11T11:32:03;25.98;;;19.50;;
66830;SDS011;53739;44.224;22.528;2023-02-11T11:39:59;34.75;;;23.38;;
66830;SDS011;53739;44.224;22.528;2023-02-11T11:42:35;63.60;;;42.45;;
66830;SDS011;53739;44.224;22.528;2023-02-11T11:45:17;62.83;;;40.88;;
66830;SDS011;53739;44.224;22.528;2023-02-11T11:48:03;122.68;;;55.75;;
66830;SDS011;53739;44.224;22.528;2023-02-11T11:53:35;74.18;;;45.92;;
66830;SDS011;53739;44.224;22.528;2023-02-11T11:56:10;47.97;;;33.17;;
66830;SDS011;53739;44.224;22.528;2023-02-11T11:58:45;56.00;;;31.48;;
66830;SDS011;53739;44.224;22.528;2023-02-11T12:12:41;74.72;;;39.03;;
66830;SDS011;53739;44.224;22.528;2023-02-11T12:15:37;45.80;;;26.45;;
66830;SDS011;53739;44.224;22.528;2023-02-11T12:27:14;72.63;;;41.45;;
66830;SDS011;53739;44.224;22.528;2023-02-11T12:33:14;146.90;;;65.43;;
66830;SDS011;53739;44.224;22.528;2023-02-11T12:35:58;57.00;;;38.80;;
66830;SDS011;53739;44.224;22.528;2023-02-11T12:44:31;50.58;;;31.92;;
66830;SDS011;53739;44.224;22.528;2023-02-11T12:55:27;90.07;;;50.72;;
66830;SDS011;53739;44.224;22.528;2023-02-11T12:57:55;89.45;;;49.40;;
66830;SDS011;53739;44.224;22.528;2023-02-11T13:03:30;59.83;;;34.42;;
66830;SDS011;53739;44.224;22.528;2023-02-11T13:06:12;40.15;;;23.98;;
66830;SDS011;53739;44.224;22.528;2023-02-11T13:08:43;48.53;;;28.75;;
66830;SDS011;53739;44.224;22.528;2023-02-11T13:11:17;274.10;;;114.07;;
66830;SDS011;53739;44.224;22.528;2023-02-11T13:16:19;48.25;;;27.92;;
66830;SDS011;53739;44.224;22.528;2023-02-11T13:19:01;48.58;;;33.28;;
66830;SDS011;53739;44.224;22.528;2023-02-11T13:24:18;75.93;;;41.63;;
66830;SDS011;53739;44.224;22.528;2023-02-11T13:32:17;43.63;;;24.92;;
66830;SDS011;53739;44.224;22.528;2023-02-11T13:37:51;34.28;;;20.80;;
66830;SDS011;53739;44.224;22.528;2023-02-11T13:40:06;36.63;;;23.27;;
66830;SDS011;53739;44.224;22.528;2023-02-11T13:42:49;54.65;;;32.47;;
66830;SDS011;53739;44.224;22.528;2023-02-11T13:47:56;56.50;;;33.67;;
66830;SDS011;53739;44.224;22.528;2023-02-11T13:50:24;45.55;;;28.98;;
66830;SDS011;53739;44.224;22.528;2023-02-11T13:52:58;49.17;;;27.08;;
66830;SDS011;53739;44.224;22.528;2023-02-11T13:55:26;47.22;;;29.80;;
66830;SDS011;53739;44.224;22.528;2023-02-11T14:19:40;79.75;;;42.42;;
66830;SDS011;53739;44.224;22.528;2023-02-11T14:27:00;63.67;;;38.25;;
66830;SDS011;53739;44.224;22.528;2023-02-11T14:32:41;57.15;;;34.60;;
66830;SDS011;53739;44.224;22.528;2023-02-11T14:38:09;79.57;;;41.45;;
66830;SDS011;53739;44.224;22.528;2023-02-11T14:41:05;78.53;;;41.40;;
66830;SDS011;53739;44.224;22.528;2023-02-11T14:43:50;96.72;;;51.13;;
66830;SDS011;53739;44.224;22.528;2023-02-11T14:46:21;152.55;;;84.40;;
66830;SDS011;53739;44.224;22.528;2023-02-11T14:48:49;187.48;;;102.75;;
66830;SDS011;53739;44.224;22.528;2023-02-11T14:51:18;186.02;;;103.75;;
66830;SDS011;53739;44.224;22.528;2023-02-11T14:53:45;114.35;;;64.72;;
66830;SDS011;53739;44.224;22.528;2023-02-11T14:56:22;69.88;;;39.35;;
66830;SDS011;53739;44.224;22.528;2023-02-11T14:58:50;93.00;;;45.10;;
66830;SDS011;53739;44.224;22.528;2023-02-11T15:01:28;94.40;;;50.45;;
66830;SDS011;53739;44.224;22.528;2023-02-11T15:04:05;69.05;;;35.78;;
66830;SDS011;53739;44.224;22.528;2023-02-11T15:06:46;81.82;;;42.80;;
66830;SDS011;53739;44.224;22.528;2023-02-11T15:09:26;117.10;;;57.92;;
66830;SDS011;53739;44.224;22.528;2023-02-11T15:14:34;66.45;;;31.70;;
66830;SDS011;53739;44.224;22.528;2023-02-11T15:17:02;113.82;;;50.22;;
66830;SDS011;53739;44.224;22.528;2023-02-11T15:19:35;83.40;;;44.22;;
66830;SDS011;53739;44.224;22.528;2023-02-11T15:24:56;76.07;;;39.08;;
66830;SDS011;53739;44.224;22.528;2023-02-11T15:27:41;43.67;;;23.25;;
66830;SDS011;53739;44.224;22.528;2023-02-11T15:32:48;56.35;;;31.33;;
66830;SDS011;53739;44.224;22.528;2023-02-11T15:35:26;67.45;;;36.33;;
66830;SDS011;53739;44.224;22.528;2023-02-11T15:37:56;84.22;;;47.75;;
66830;SDS011;53739;44.224;22.528;2023-02-11T15:40:24;57.05;;;35.88;;
66830;SDS011;53739;44.224;22.528;2023-02-11T15:45:28;122.30;;;58.25;;
66830;SDS011;53739;44.224;22.528;2023-02-11T15:48:32;50.40;;;26.00;;
66830;SDS011;53739;44.224;22.528;2023-02-11T15:53:56;378.58;;;139.70;;
66830;SDS011;53739;44.224;22.528;2023-02-11T15:56:35;234.25;;;93.95;;
66830;SDS011;53739;44.224;22.528;2023-02-11T15:59:14;214.50;;;93.35;;
66830;SDS011;53739;44.224;22.528;2023-02-11T16:01:47;68.03;;;36.95;;
66830;SDS011;53739;44.224;22.528;2023-02-11T16:04:17;315.23;;;148.88;;
66830;SDS011;53739;44.224;22.528;2023-02-11T16:06:45;288.52;;;148.93;;
66830;SDS011;53739;44.224;22.528;2023-02-11T16:19:34;80.28;;;45.08;;
66830;SDS011;53739;44.224;22.528;2023-02-11T16:22:08;73.10;;;42.10;;
66830;SDS011;53739;44.224;22.528;2023-02-11T16:24:38;108.70;;;63.92;;
66830;SDS011;53739;44.224;22.528;2023-02-11T16:30:04;92.53;;;53.08;;
66830;SDS011;53739;44.224;22.528;2023-02-11T16:32:31;99.88;;;61.72;;
66830;SDS011;53739;44.224;22.528;2023-02-11T16:34:59;64.68;;;38.92;;
66830;SDS011;53739;44.224;22.528;2023-02-11T16:37:25;78.13;;;47.63;;
66830;SDS011;53739;44.224;22.528;2023-02-11T16:39:55;98.97;;;60.55;;
66830;SDS011;53739;44.224;22.528;2023-02-11T16:42:22;64.82;;;37.33;;
66830;SDS011;53739;44.224;22.528;2023-02-11T16:44:48;68.40;;;41.25;;
66830;SDS011;53739;44.224;22.528;2023-02-11T16:47:32;67.18;;;40.20;;
66830;SDS011;53739;44.224;22.528;2023-02-11T16:49:59;65.45;;;43.22;;
66830;SDS011;53739;44.224;22.528;2023-02-11T16:52:26;69.78;;;39.80;;
66830;SDS011;53739;44.224;22.528;2023-02-11T16:54:55;67.68;;;40.25;;
66830;SDS011;53739;44.224;22.528;2023-02-11T16:57:22;65.47;;;38.75;;
66830;SDS011;53739;44.224;22.528;2023-02-11T16:59:49;65.50;;;42.60;;
66830;SDS011;53739;44.224;22.528;2023-02-11T17:02:24;49.58;;;29.42;;
66830;SDS011;53739;44.224;22.528;2023-02-11T17:04:52;58.90;;;34.10;;
66830;SDS011;53739;44.224;22.528;2023-02-11T17:07:20;72.88;;;43.10;;
66830;SDS011;53739;44.224;22.528;2023-02-11T17:09:46;114.00;;;65.57;;
66830;SDS011;53739;44.224;22.528;2023-02-11T17:12:12;79.10;;;39.25;;
66830;SDS011;53739;44.224;22.528;2023-02-11T17:14:37;86.90;;;48.63;;
66830;SDS011;53739;44.224;22.528;2023-02-11T17:17:03;104.00;;;61.60;;
66830;SDS011;53739;44.224;22.528;2023-02-11T17:19:29;111.18;;;61.03;;
66830;SDS011;53739;44.224;22.528;2023-02-11T17:21:54;63.35;;;35.97;;
66830;SDS011;53739;44.224;22.528;2023-02-11T17:24:21;104.85;;;56.05;;
66830;SDS011;53739;44.224;22.528;2023-02-11T17:26:47;99.97;;;54.13;;
66830;SDS011;53739;44.224;22.528;2023-02-11T17:29:15;146.85;;;78.22;;
66830;SDS011;53739;44.224;22.528;2023-02-11T17:31:42;134.65;;;69.82;;
66830;SDS011;53739;44.224;22.528;2023-02-11T17:34:09;74.50;;;42.35;;
66830;SDS011;53739;44.224;22.528;2023-02-11T17:36:35;64.90;;;37.58;;
66830;SDS011;53739;44.224;22.528;2023-02-11T17:39:01;72.25;;;42.30;;
66830;SDS011;53739;44.224;22.528;2023-02-11T17:41:29;59.50;;;34.40;;
66830;SDS011;53739;44.224;22.528;2023-02-11T17:43:58;62.47;;;37.47;;
66830;SDS011;53739;44.224;22.528;2023-02-11T17:46:25;67.68;;;38.28;;
66830;SDS011;53739;44.224;22.528;2023-02-11T17:48:54;56.33;;;33.25;;
66830;SDS011;53739;44.224;22.528;2023-02-11T17:51:30;44.42;;;26.08;;
66830;SDS011;53739;44.224;22.528;2023-02-11T17:54:01;53.88;;;32.88;;
66830;SDS011;53739;44.224;22.528;2023-02-11T17:56:33;66.53;;;40.92;;
66830;SDS011;53739;44.224;22.528;2023-02-11T17:59:00;50.10;;;26.30;;
66830;SDS011;53739;44.224;22.528;2023-02-11T18:01:29;56.95;;;32.53;;
66830;SDS011;53739;44.224;22.528;2023-02-11T18:03:56;56.67;;;34.45;;
66830;SDS011;53739;44.224;22.528;2023-02-11T18:06:22;67.65;;;40.40;;
66830;SDS011;53739;44.224;22.528;2023-02-11T18:08:48;55.10;;;31.80;;
66830;SDS011;53739;44.224;22.528;2023-02-11T18:11:15;63.35;;;38.28;;
66830;SDS011;53739;44.224;22.528;2023-02-11T18:13:42;67.18;;;40.63;;
66830;SDS011;53739;44.224;22.528;2023-02-11T18:16:09;68.30;;;38.50;;
66830;SDS011;53739;44.224;22.528;2023-02-11T18:18:42;70.07;;;40.95;;
66830;SDS011;53739;44.224;22.528;2023-02-11T18:21:12;75.63;;;43.45;;
66830;SDS011;53739;44.224;22.528;2023-02-11T18:23:39;58.85;;;35.05;;
66830;SDS011;53739;44.224;22.528;2023-02-11T18:26:06;65.60;;;35.95;;
66830;SDS011;53739;44.224;22.528;2023-02-11T18:28:32;96.88;;;50.45;;
66830;SDS011;53739;44.224;22.528;2023-02-11T18:30:58;59.33;;;33.40;;
66830;SDS011;53739;44.224;22.528;2023-02-11T18:33:24;62.75;;;36.30;;
66830;SDS011;53739;44.224;22.528;2023-02-11T18:35:50;73.28;;;43.67;;
66830;SDS011;53739;44.224;22.528;2023-02-11T18:38:16;68.03;;;38.97;;
66830;SDS011;53739;44.224;22.528;2023-02-11T18:40:46;66.05;;;39.03;;
66830;SDS011;53739;44.224;22.528;2023-02-11T18:43:14;62.92;;;38.03;;
66830;SDS011;53739;44.224;22.528;2023-02-11T18:45:50;69.75;;;40.55;;
66830;SDS011;53739;44.224;22.528;2023-02-11T18:48:16;72.63;;;35.85;;